Terminal Aerodrome Forecast
Issued by NWS

Home | Current Version | Previous Version | Text Only | Print | Product List | Glossary On
Versions: 1 2 3 4 5 6 7 8 9 10 11 12 13
906
FTUS46 KPDT 101738
TAFALW
TAF
KALW 101738Z 1018/1118 20004KT P6SM BKN150
     FM102100 22005KT P6SM OVC100
     FM110100 12005KT P6SM SCT050 OVC080
     FM110600 16004KT P6SM SCT040 OVC070
     FM111300 15005KT P6SM SCT070 OVC100=

USA.gov is the U.S. government's official web portal to all federal, state and local government web resources and services.